sensor_id;sensor_type;location;lat;lon;timestamp;temperature;humidity
23717;DHT22;22094;52.130;5.598;2023-05-07T00:01:29;14.30;99.90
23717;DHT22;22094;52.130;5.598;2023-05-07T00:03:55;14.00;99.90
23717;DHT22;22094;52.130;5.598;2023-05-07T00:06:21;14.30;99.90
23717;DHT22;22094;52.130;5.598;2023-05-07T00:08:46;14.20;99.90
23717;DHT22;22094;52.130;5.598;2023-05-07T00:11:12;13.80;99.90
23717;DHT22;22094;52.130;5.598;2023-05-07T00:13:37;14.40;99.90
23717;DHT22;22094;52.130;5.598;2023-05-07T00:16:03;13.50;99.90
23717;DHT22;22094;52.130;5.598;2023-05-07T00:18:29;14.00;99.90
23717;DHT22;22094;52.130;5.598;2023-05-07T00:20:55;14.00;99.90
23717;DHT22;22094;52.130;5.598;2023-05-07T00:23:21;14.10;99.90
23717;DHT22;22094;52.130;5.598;2023-05-07T00:25:47;14.10;99.90
23717;DHT22;22094;52.130;5.598;2023-05-07T00:28:13;14.20;99.90
23717;DHT22;22094;52.130;5.598;2023-05-07T00:30:38;14.20;99.90
23717;DHT22;22094;52.130;5.598;2023-05-07T00:33:04;13.70;99.90
23717;DHT22;22094;52.130;5.598;2023-05-07T00:35:29;14.30;99.90
23717;DHT22;22094;52.130;5.598;2023-05-07T00:37:55;14.00;99.90
23717;DHT22;22094;52.130;5.598;2023-05-07T00:40:21;13.90;99.90
23717;DHT22;22094;52.130;5.598;2023-05-07T00:42:46;14.20;99.90
23717;DHT22;22094;52.130;5.598;2023-05-07T00:45:15;13.90;99.90
23717;DHT22;22094;52.130;5.598;2023-05-07T00:47:41;13.90;99.90
23717;DHT22;22094;52.130;5.598;2023-05-07T00:50:08;14.20;99.90
23717;DHT22;22094;52.130;5.598;2023-05-07T00:52:35;13.80;99.90
23717;DHT22;22094;52.130;5.598;2023-05-07T00:55:06;13.70;99.90
23717;DHT22;22094;52.130;5.598;2023-05-07T00:57:40;13.70;99.90
23717;DHT22;22094;52.130;5.598;2023-05-07T01:00:07;14.00;99.90
23717;DHT22;22094;52.130;5.598;2023-05-07T01:02:38;13.70;99.90
23717;DHT22;22094;52.130;5.598;2023-05-07T01:05:06;13.90;99.90
23717;DHT22;22094;52.130;5.598;2023-05-07T01:07:33;13.60;99.90
23717;DHT22;22094;52.130;5.598;2023-05-07T01:10:00;13.60;99.90
23717;DHT22;22094;52.130;5.598;2023-05-07T01:12:26;13.60;99.90
23717;DHT22;22094;52.130;5.598;2023-05-07T01:14:53;13.60;99.90
23717;DHT22;22094;52.130;5.598;2023-05-07T01:17:19;13.70;99.90
23717;DHT22;22094;52.130;5.598;2023-05-07T01:19:44;13.60;99.90
23717;DHT22;22094;52.130;5.598;2023-05-07T01:22:10;13.70;99.90
23717;DHT22;22094;52.130;5.598;2023-05-07T01:24:37;13.70;99.90
23717;DHT22;22094;52.130;5.598;2023-05-07T01:27:04;13.70;99.90
23717;DHT22;22094;52.130;5.598;2023-05-07T01:29:29;13.80;99.90
23717;DHT22;22094;52.130;5.598;2023-05-07T01:31:59;13.70;99.90
23717;DHT22;22094;52.130;5.598;2023-05-07T01:34:26;13.60;99.90
23717;DHT22;22094;52.130;5.598;2023-05-07T01:36:54;13.60;99.90
23717;DHT22;22094;52.130;5.598;2023-05-07T01:39:22;14.60;99.90
23717;DHT22;22094;52.130;5.598;2023-05-07T01:41:48;13.60;99.90
23717;DHT22;22094;52.130;5.598;2023-05-07T01:44:15;13.60;99.90
23717;DHT22;22094;52.130;5.598;2023-05-07T01:46:42;13.90;99.90
23717;DHT22;22094;52.130;5.598;2023-05-07T01:49:08;14.10;99.90
23717;DHT22;22094;52.130;5.598;2023-05-07T01:51:34;13.70;99.90
23717;DHT22;22094;52.130;5.598;2023-05-07T01:54:02;13.90;99.90
23717;DHT22;22094;52.130;5.598;2023-05-07T01:56:27;13.60;99.90
23717;DHT22;22094;52.130;5.598;2023-05-07T01:58:53;13.60;99.90
23717;DHT22;22094;52.130;5.598;2023-05-07T02:01:19;13.70;99.90
23717;DHT22;22094;52.130;5.598;2023-05-07T02:03:44;13.60;99.90
23717;DHT22;22094;52.130;5.598;2023-05-07T02:06:10;13.70;99.90
23717;DHT22;22094;52.130;5.598;2023-05-07T02:08:36;13.60;99.90
23717;DHT22;22094;52.130;5.598;2023-05-07T02:11:01;13.60;99.90
23717;DHT22;22094;52.130;5.598;2023-05-07T02:13:31;13.60;99.90
23717;DHT22;22094;52.130;5.598;2023-05-07T02:15:57;13.60;99.90
23717;DHT22;22094;52.130;5.598;2023-05-07T02:18:23;13.70;99.90
23717;DHT22;22094;52.130;5.598;2023-05-07T02:20:48;13.60;99.90
23717;DHT22;22094;52.130;5.598;2023-05-07T02:23:14;13.50;99.90
23717;DHT22;22094;52.130;5.598;2023-05-07T02:25:40;13.60;99.90
23717;DHT22;22094;52.130;5.598;2023-05-07T02:28:05;13.70;99.90
23717;DHT22;22094;52.130;5.598;2023-05-07T02:30:31;13.80;99.90
23717;DHT22;22094;52.130;5.598;2023-05-07T02:32:58;13.60;99.90
23717;DHT22;22094;52.130;5.598;2023-05-07T02:35:27;13.80;99.90
23717;DHT22;22094;52.130;5.598;2023-05-07T02:37:52;13.60;99.90
23717;DHT22;22094;52.130;5.598;2023-05-07T02:40:18;13.60;99.90
23717;DHT22;22094;52.130;5.598;2023-05-07T02:42:44;13.60;99.90
23717;DHT22;22094;52.130;5.598;2023-05-07T02:45:09;13.60;99.90
23717;DHT22;22094;52.130;5.598;2023-05-07T02:47:35;13.60;99.90
23717;DHT22;22094;52.130;5.598;2023-05-07T02:50:01;13.90;99.90
23717;DHT22;22094;52.130;5.598;2023-05-07T02:52:27;13.60;99.90
23717;DHT22;22094;52.130;5.598;2023-05-07T02:54:53;13.50;99.90
23717;DHT22;22094;52.130;5.598;2023-05-07T02:57:18;13.50;99.90
23717;DHT22;22094;52.130;5.598;2023-05-07T02:59:44;13.50;99.90
23717;DHT22;22094;52.130;5.598;2023-05-07T03:02:09;13.80;99.90
23717;DHT22;22094;52.130;5.598;2023-05-07T03:04:35;13.50;99.90
23717;DHT22;22094;52.130;5.598;2023-05-07T03:07:01;13.50;99.90
23717;DHT22;22094;52.130;5.598;2023-05-07T03:09:27;13.90;99.90
23717;DHT22;22094;52.130;5.598;2023-05-07T03:11:52;13.70;99.90
23717;DHT22;22094;52.130;5.598;2023-05-07T03:14:18;13.80;99.90
23717;DHT22;22094;52.130;5.598;2023-05-07T03:16:44;13.60;99.90
23717;DHT22;22094;52.130;5.598;2023-05-07T03:19:09;13.80;99.90
23717;DHT22;22094;52.130;5.598;2023-05-07T03:21:35;13.60;99.90
23717;DHT22;22094;52.130;5.598;2023-05-07T03:24:01;13.70;99.90
23717;DHT22;22094;52.130;5.598;2023-05-07T03:26:26;13.80;99.90
23717;DHT22;22094;52.130;5.598;2023-05-07T03:28:52;13.60;99.90
23717;DHT22;22094;52.130;5.598;2023-05-07T03:31:18;14.00;99.90
23717;DHT22;22094;52.130;5.598;2023-05-07T03:33:57;13.60;99.90
23717;DHT22;22094;52.130;5.598;2023-05-07T03:36:23;13.90;99.90
23717;DHT22;22094;52.130;5.598;2023-05-07T03:38:49;14.00;99.90
23717;DHT22;22094;52.130;5.598;2023-05-07T03:41:15;13.60;99.90
23717;DHT22;22094;52.130;5.598;2023-05-07T03:43:41;13.60;99.90
23717;DHT22;22094;52.130;5.598;2023-05-07T03:46:07;14.60;99.90
23717;DHT22;22094;52.130;5.598;2023-05-07T03:48:32;13.50;99.90
23717;DHT22;22094;52.130;5.598;2023-05-07T03:50:58;13.60;99.90
23717;DHT22;22094;52.130;5.598;2023-05-07T03:53:24;13.70;99.90
23717;DHT22;22094;52.130;5.598;2023-05-07T03:55:50;13.50;99.90
23717;DHT22;22094;52.130;5.598;2023-05-07T03:58:15;13.70;99.90
23717;DHT22;22094;52.130;5.598;2023-05-07T04:00:43;13.60;99.90
23717;DHT22;22094;52.130;5.598;2023-05-07T04:03:26;13.40;99.90
23717;DHT22;22094;52.130;5.598;2023-05-07T04:05:52;13.50;99.90
23717;DHT22;22094;52.130;5.598;2023-05-07T04:08:18;13.60;99.90
23717;DHT22;22094;52.130;5.598;2023-05-07T04:10:43;13.60;99.90
23717;DHT22;22094;52.130;5.598;2023-05-07T04:13:09;14.00;99.90
23717;DHT22;22094;52.130;5.598;2023-05-07T04:15:35;13.60;99.90
23717;DHT22;22094;52.130;5.598;2023-05-07T04:18:01;14.30;99.90
23717;DHT22;22094;52.130;5.598;2023-05-07T04:20:27;13.50;99.90
23717;DHT22;22094;52.130;5.598;2023-05-07T04:22:52;13.60;99.90
23717;DHT22;22094;52.130;5.598;2023-05-07T04:25:18;13.70;99.90
23717;DHT22;22094;52.130;5.598;2023-05-07T04:27:44;14.40;99.90
23717;DHT22;22094;52.130;5.598;2023-05-07T04:30:10;13.00;99.90
23717;DHT22;22094;52.130;5.598;2023-05-07T04:32:35;13.60;99.90
23717;DHT22;22094;52.130;5.598;2023-05-07T04:35:03;13.60;99.90
23717;DHT22;22094;52.130;5.598;2023-05-07T04:37:28;13.60;99.90
23717;DHT22;22094;52.130;5.598;2023-05-07T04:39:54;13.60;99.90
23717;DHT22;22094;52.130;5.598;2023-05-07T04:42:19;13.60;99.90
23717;DHT22;22094;52.130;5.598;2023-05-07T04:44:45;13.50;99.90
23717;DHT22;22094;52.130;5.598;2023-05-07T04:47:11;13.70;99.90
23717;DHT22;22094;52.130;5.598;2023-05-07T04:49:38;13.60;99.90
23717;DHT22;22094;52.130;5.598;2023-05-07T04:52:04;13.60;99.90
23717;DHT22;22094;52.130;5.598;2023-05-07T04:54:30;13.70;99.90
23717;DHT22;22094;52.130;5.598;2023-05-07T04:56:55;13.70;99.90
23717;DHT22;22094;52.130;5.598;2023-05-07T04:59:21;14.00;99.90
23717;DHT22;22094;52.130;5.598;2023-05-07T05:01:47;14.00;99.90
23717;DHT22;22094;52.130;5.598;2023-05-07T05:04:12;13.70;99.90
23717;DHT22;22094;52.130;5.598;2023-05-07T05:06:38;14.50;99.90
23717;DHT22;22094;52.130;5.598;2023-05-07T05:09:04;13.80;99.90
23717;DHT22;22094;52.130;5.598;2023-05-07T05:13:56;13.90;99.90
23717;DHT22;22094;52.130;5.598;2023-05-07T05:16:22;13.90;99.90
23717;DHT22;22094;52.130;5.598;2023-05-07T05:18:50;13.80;99.90
23717;DHT22;22094;52.130;5.598;2023-05-07T05:21:21;14.00;99.90
23717;DHT22;22094;52.130;5.598;2023-05-07T05:24:05;15.60;99.90
23717;DHT22;22094;52.130;5.598;2023-05-07T05:26:30;14.10;99.90
23717;DHT22;22094;52.130;5.598;2023-05-07T05:31:22;14.20;99.90
23717;DHT22;22094;52.130;5.598;2023-05-07T05:33:48;15.50;99.90
23717;DHT22;22094;52.130;5.598;2023-05-07T05:36:13;15.50;99.90
23717;DHT22;22094;52.130;5.598;2023-05-07T05:41:05;14.20;99.90
23717;DHT22;22094;52.130;5.598;2023-05-07T05:43:31;14.20;99.90
23717;DHT22;22094;52.130;5.598;2023-05-07T05:45:57;14.20;99.90
23717;DHT22;22094;52.130;5.598;2023-05-07T05:48:23;14.00;99.90
23717;DHT22;22094;52.130;5.598;2023-05-07T05:53:15;14.30;99.90
23717;DHT22;22094;52.130;5.598;2023-05-07T05:55:41;14.40;99.90
23717;DHT22;22094;52.130;5.598;2023-05-07T06:05:25;14.50;99.90
23717;DHT22;22094;52.130;5.598;2023-05-07T06:07:51;14.60;99.90
23717;DHT22;22094;52.130;5.598;2023-05-07T06:10:17;14.60;99.90
23717;DHT22;22094;52.130;5.598;2023-05-07T06:12:42;14.70;99.90
23717;DHT22;22094;52.130;5.598;2023-05-07T06:17:34;14.80;99.90
23717;DHT22;22094;52.130;5.598;2023-05-07T06:20:00;14.50;99.90
23717;DHT22;22094;52.130;5.598;2023-05-07T06:27:17;14.90;99.90
23717;DHT22;22094;52.130;5.598;2023-05-07T06:32:11;14.90;99.90
23717;DHT22;22094;52.130;5.598;2023-05-07T06:34:38;14.20;99.90
23717;DHT22;22094;52.130;5.598;2023-05-07T06:59:03;15.00;99.90
23717;DHT22;22094;52.130;5.598;2023-05-07T07:08:47;15.50;99.90
23717;DHT22;22094;52.130;5.598;2023-05-07T07:13:38;14.50;99.90
23717;DHT22;22094;52.130;5.598;2023-05-07T07:20:57;15.50;99.90
23717;DHT22;22094;52.130;5.598;2023-05-07T07:28:15;14.70;99.90
23717;DHT22;22094;52.130;5.598;2023-05-07T07:30:41;13.10;99.90
23717;DHT22;22094;52.130;5.598;2023-05-07T07:42:52;16.10;99.90
23717;DHT22;22094;52.130;5.598;2023-05-07T07:55:02;16.30;99.90
23717;DHT22;22094;52.130;5.598;2023-05-07T07:59:54;17.00;99.90
23717;DHT22;22094;52.130;5.598;2023-05-07T08:02:20;16.40;99.90
23717;DHT22;22094;52.130;5.598;2023-05-07T08:07:12;16.50;99.90
23717;DHT22;22094;52.130;5.598;2023-05-07T08:09:38;15.30;99.90
23717;DHT22;22094;52.130;5.598;2023-05-07T08:12:05;18.20;99.90
23717;DHT22;22094;52.130;5.598;2023-05-07T08:19:22;17.00;99.90
23717;DHT22;22094;52.130;5.598;2023-05-07T08:21:48;15.30;99.90
23717;DHT22;22094;52.130;5.598;2023-05-07T08:24:18;15.10;99.90
23717;DHT22;22094;52.130;5.598;2023-05-07T08:26:44;16.30;99.90
23717;DHT22;22094;52.130;5.598;2023-05-07T08:36:32;17.10;99.90
23717;DHT22;22094;52.130;5.598;2023-05-07T08:41:23;16.80;99.90
23717;DHT22;22094;52.130;5.598;2023-05-07T08:43:50;16.50;99.90
23717;DHT22;22094;52.130;5.598;2023-05-07T08:46:21;16.50;99.90
23717;DHT22;22094;52.130;5.598;2023-05-07T08:48:50;16.40;99.90
23717;DHT22;22094;52.130;5.598;2023-05-07T08:51:19;15.10;99.90
23717;DHT22;22094;52.130;5.598;2023-05-07T08:53:47;16.10;99.90
23717;DHT22;22094;52.130;5.598;2023-05-07T08:56:15;15.90;99.90
23717;DHT22;22094;52.130;5.598;2023-05-07T08:58:42;16.10;99.90
23717;DHT22;22094;52.130;5.598;2023-05-07T09:01:09;15.90;99.90
23717;DHT22;22094;52.130;5.598;2023-05-07T09:03:37;15.90;99.90
23717;DHT22;22094;52.130;5.598;2023-05-07T09:08:32;14.10;99.90
23717;DHT22;22094;52.130;5.598;2023-05-07T09:15:50;15.60;99.90
23717;DHT22;22094;52.130;5.598;2023-05-07T09:20:41;16.20;99.90
23717;DHT22;22094;52.130;5.598;2023-05-07T09:23:08;17.90;99.90
23717;DHT22;22094;52.130;5.598;2023-05-07T09:25:35;16.50;99.90
23717;DHT22;22094;52.130;5.598;2023-05-07T09:28:01;16.50;99.90
23717;DHT22;22094;52.130;5.598;2023-05-07T09:30:31;16.20;99.90
23717;DHT22;22094;52.130;5.598;2023-05-07T09:33:01;16.50;99.90
23717;DHT22;22094;52.130;5.598;2023-05-07T09:35:27;18.60;99.90
23717;DHT22;22094;52.130;5.598;2023-05-07T09:37:55;15.90;99.90
23717;DHT22;22094;52.130;5.598;2023-05-07T09:40:29;16.40;99.90
23717;DHT22;22094;52.130;5.598;2023-05-07T09:45:30;14.90;99.90
23717;DHT22;22094;52.130;5.598;2023-05-07T09:47:57;16.50;99.90
23717;DHT22;22094;52.130;5.598;2023-05-07T09:50:34;18.20;99.90
23717;DHT22;22094;52.130;5.598;2023-05-07T09:55:27;16.90;99.90
23717;DHT22;22094;52.130;5.598;2023-05-07T09:57:53;19.20;99.90
23717;DHT22;22094;52.130;5.598;2023-05-07T10:00:21;18.20;99.90
23717;DHT22;22094;52.130;5.598;2023-05-07T10:02:49;18.40;99.90
23717;DHT22;22094;52.130;5.598;2023-05-07T10:05:16;16.20;99.90
23717;DHT22;22094;52.130;5.598;2023-05-07T10:10:09;17.00;99.90
23717;DHT22;22094;52.130;5.598;2023-05-07T10:15:08;19.20;99.90
23717;DHT22;22094;52.130;5.598;2023-05-07T10:17:38;17.10;99.90
23717;DHT22;22094;52.130;5.598;2023-05-07T10:20:05;18.60;99.90
23717;DHT22;22094;52.130;5.598;2023-05-07T10:22:39;18.60;99.90
23717;DHT22;22094;52.130;5.598;2023-05-07T10:25:14;18.30;99.90
23717;DHT22;22094;52.130;5.598;2023-05-07T10:27:41;18.60;99.90
23717;DHT22;22094;52.130;5.598;2023-05-07T10:32:50;19.10;99.90
23717;DHT22;22094;52.130;5.598;2023-05-07T10:35:19;18.40;99.90
23717;DHT22;22094;52.130;5.598;2023-05-07T10:37:46;18.70;99.90
23717;DHT22;22094;52.130;5.598;2023-05-07T10:45:14;20.20;99.90
23717;DHT22;22094;52.130;5.598;2023-05-07T10:48:15;19.40;99.90
23717;DHT22;22094;52.130;5.598;2023-05-07T10:50:42;19.70;99.90
23717;DHT22;22094;52.130;5.598;2023-05-07T11:00:55;20.00;99.90
23717;DHT22;22094;52.130;5.598;2023-05-07T11:05:47;20.60;99.90
23717;DHT22;22094;52.130;5.598;2023-05-07T11:11:18;19.50;99.90
23717;DHT22;22094;52.130;5.598;2023-05-07T11:13:46;21.60;99.90
23717;DHT22;22094;52.130;5.598;2023-05-07T11:16:22;21.20;99.90
23717;DHT22;22094;52.130;5.598;2023-05-07T11:18:53;21.90;99.90
23717;DHT22;22094;52.130;5.598;2023-05-07T11:21:48;20.00;99.90
23717;DHT22;22094;52.130;5.598;2023-05-07T11:24:14;21.40;99.90
23717;DHT22;22094;52.130;5.598;2023-05-07T11:26:50;21.00;99.90
23717;DHT22;22094;52.130;5.598;2023-05-07T11:29:20;21.20;99.90
23717;DHT22;22094;52.130;5.598;2023-05-07T11:31:50;21.00;99.90
23717;DHT22;22094;52.130;5.598;2023-05-07T11:34:24;20.50;99.90
23717;DHT22;22094;52.130;5.598;2023-05-07T11:36:50;21.00;99.90
23717;DHT22;22094;52.130;5.598;2023-05-07T11:39:30;20.80;99.90
23717;DHT22;22094;52.130;5.598;2023-05-07T11:41:57;18.40;99.90
23717;DHT22;22094;52.130;5.598;2023-05-07T11:44:22;20.70;99.90
23717;DHT22;22094;52.130;5.598;2023-05-07T11:49:15;23.10;99.90
23717;DHT22;22094;52.130;5.598;2023-05-07T11:51:41;20.70;99.90
23717;DHT22;22094;52.130;5.598;2023-05-07T11:54:08;21.20;99.90
23717;DHT22;22094;52.130;5.598;2023-05-07T11:56:34;20.80;99.90
23717;DHT22;22094;52.130;5.598;2023-05-07T11:59:00;19.60;99.90
23717;DHT22;22094;52.130;5.598;2023-05-07T12:03:52;21.10;99.90
23717;DHT22;22094;52.130;5.598;2023-05-07T12:08:45;21.10;99.90
23717;DHT22;22094;52.130;5.598;2023-05-07T12:11:22;21.50;99.90
23717;DHT22;22094;52.130;5.598;2023-05-07T12:13:48;20.80;99.90
23717;DHT22;22094;52.130;5.598;2023-05-07T12:18:40;21.50;99.90
23717;DHT22;22094;52.130;5.598;2023-05-07T12:21:07;23.30;99.90
23717;DHT22;22094;52.130;5.598;2023-05-07T12:23:36;22.00;99.90
23717;DHT22;22094;52.130;5.598;2023-05-07T12:26:02;22.20;99.90
23717;DHT22;22094;52.130;5.598;2023-05-07T12:28:28;22.00;99.90
23717;DHT22;22094;52.130;5.598;2023-05-07T12:30:54;20.80;99.90
23717;DHT22;22094;52.130;5.598;2023-05-07T12:33:24;24.30;99.90
23717;DHT22;22094;52.130;5.598;2023-05-07T12:35:50;23.20;99.90
23717;DHT22;22094;52.130;5.598;2023-05-07T12:38:17;21.60;99.90
23717;DHT22;22094;52.130;5.598;2023-05-07T12:40:45;20.60;99.90
23717;DHT22;22094;52.130;5.598;2023-05-07T12:43:31;22.00;99.90
23717;DHT22;22094;52.130;5.598;2023-05-07T12:46:00;23.70;99.90
23717;DHT22;22094;52.130;5.598;2023-05-07T12:50:56;22.10;99.90
23717;DHT22;22094;52.130;5.598;2023-05-07T12:53:23;24.60;99.90
23717;DHT22;22094;52.130;5.598;2023-05-07T12:55:51;23.60;99.90
23717;DHT22;22094;52.130;5.598;2023-05-07T12:58:27;22.90;99.90
23717;DHT22;22094;52.130;5.598;2023-05-07T13:00:55;23.20;99.90
23717;DHT22;22094;52.130;5.598;2023-05-07T13:03:26;23.80;99.90
23717;DHT22;22094;52.130;5.598;2023-05-07T13:05:52;22.40;99.90
23717;DHT22;22094;52.130;5.598;2023-05-07T13:08:30;23.70;99.90
23717;DHT22;22094;52.130;5.598;2023-05-07T13:10:56;23.60;99.90
23717;DHT22;22094;52.130;5.598;2023-05-07T13:13:22;24.20;99.90
23717;DHT22;22094;52.130;5.598;2023-05-07T13:15:48;23.70;99.90
23717;DHT22;22094;52.130;5.598;2023-05-07T13:18:13;25.00;99.90
23717;DHT22;22094;52.130;5.598;2023-05-07T13:23:06;24.50;99.90
23717;DHT22;22094;52.130;5.598;2023-05-07T13:25:31;23.10;99.90
23717;DHT22;22094;52.130;5.598;2023-05-07T13:27:57;22.90;99.90
23717;DHT22;22094;52.130;5.598;2023-05-07T13:35:16;22.00;99.90
23717;DHT22;22094;52.130;5.598;2023-05-07T13:37:41;23.10;99.90
23717;DHT22;22094;52.130;5.598;2023-05-07T13:40:07;22.40;99.90
23717;DHT22;22094;52.130;5.598;2023-05-07T13:44:59;21.40;99.90
23717;DHT22;22094;52.130;5.598;2023-05-07T13:47:24;23.10;99.90
23717;DHT22;22094;52.130;5.598;2023-05-07T13:49:50;23.50;99.90
23717;DHT22;22094;52.130;5.598;2023-05-07T13:52:16;20.90;99.90
23717;DHT22;22094;52.130;5.598;2023-05-07T13:54:42;20.60;99.90
23717;DHT22;22094;52.130;5.598;2023-05-07T13:57:07;20.10;99.90
23717;DHT22;22094;52.130;5.598;2023-05-07T13:59:33;20.70;99.90
23717;DHT22;22094;52.130;5.598;2023-05-07T14:01:59;20.00;99.90
23717;DHT22;22094;52.130;5.598;2023-05-07T14:06:51;21.30;99.90
23717;DHT22;22094;52.130;5.598;2023-05-07T14:14:08;20.70;99.90
23717;DHT22;22094;52.130;5.598;2023-05-07T14:16:37;20.10;99.90
23717;DHT22;22094;52.130;5.598;2023-05-07T14:19:03;21.50;99.90
23717;DHT22;22094;52.130;5.598;2023-05-07T14:26:22;22.10;99.90
23717;DHT22;22094;52.130;5.598;2023-05-07T14:28:48;21.10;99.90
23717;DHT22;22094;52.130;5.598;2023-05-07T14:36:06;20.60;99.90
23717;DHT22;22094;52.130;5.598;2023-05-07T14:45:50;17.80;99.90
23717;DHT22;22094;52.130;5.598;2023-05-07T14:48:15;19.70;99.90
23717;DHT22;22094;52.130;5.598;2023-05-07T14:50:42;19.90;99.90
23717;DHT22;22094;52.130;5.598;2023-05-07T14:53:07;19.50;99.90
23717;DHT22;22094;52.130;5.598;2023-05-07T14:55:34;19.90;99.90
23717;DHT22;22094;52.130;5.598;2023-05-07T15:10:10;19.50;99.90
23717;DHT22;22094;52.130;5.598;2023-05-07T15:12:36;19.40;99.90
23717;DHT22;22094;52.130;5.598;2023-05-07T15:15:02;19.10;99.90
23717;DHT22;22094;52.130;5.598;2023-05-07T15:24:48;20.00;99.90
23717;DHT22;22094;52.130;5.598;2023-05-07T15:27:14;19.10;99.90
23717;DHT22;22094;52.130;5.598;2023-05-07T15:32:05;18.50;99.90
23717;DHT22;22094;52.130;5.598;2023-05-07T15:34:32;18.40;99.90
23717;DHT22;22094;52.130;5.598;2023-05-07T15:36:57;18.40;99.90
23717;DHT22;22094;52.130;5.598;2023-05-07T15:41:49;18.40;99.90
23717;DHT22;22094;52.130;5.598;2023-05-07T15:49:06;18.20;99.90
23717;DHT22;22094;52.130;5.598;2023-05-07T15:51:35;18.30;99.90
23717;DHT22;22094;52.130;5.598;2023-05-07T15:56:27;18.00;99.90
23717;DHT22;22094;52.130;5.598;2023-05-07T16:01:18;17.90;99.90
23717;DHT22;22094;52.130;5.598;2023-05-07T16:03:44;17.80;99.90
23717;DHT22;22094;52.130;5.598;2023-05-07T16:06:09;18.00;99.90
23717;DHT22;22094;52.130;5.598;2023-05-07T16:08:37;17.70;99.90
23717;DHT22;22094;52.130;5.598;2023-05-07T16:11:04;17.50;99.90
23717;DHT22;22094;52.130;5.598;2023-05-07T16:13:30;17.20;99.90
23717;DHT22;22094;52.130;5.598;2023-05-07T16:15:56;17.00;99.90
23717;DHT22;22094;52.130;5.598;2023-05-07T16:18:25;16.40;99.90
23717;DHT22;22094;52.130;5.598;2023-05-07T16:20:51;16.30;99.90
23717;DHT22;22094;52.130;5.598;2023-05-07T16:23:16;16.00;99.90
23717;DHT22;22094;52.130;5.598;2023-05-07T16:25:42;15.90;99.90
23717;DHT22;22094;52.130;5.598;2023-05-07T16:28:08;16.00;99.90
23717;DHT22;22094;52.130;5.598;2023-05-07T16:30:33;15.60;99.90
23717;DHT22;22094;52.130;5.598;2023-05-07T16:32:59;15.50;99.90
23717;DHT22;22094;52.130;5.598;2023-05-07T16:35:24;15.50;99.90
23717;DHT22;22094;52.130;5.598;2023-05-07T16:37:50;15.40;99.90
23717;DHT22;22094;52.130;5.598;2023-05-07T16:40:16;15.40;99.90
23717;DHT22;22094;52.130;5.598;2023-05-07T16:42:42;15.40;99.90
23717;DHT22;22094;52.130;5.598;2023-05-07T16:45:08;15.30;99.90
23717;DHT22;22094;52.130;5.598;2023-05-07T16:47:33;15.20;99.90
23717;DHT22;22094;52.130;5.598;2023-05-07T16:49:59;15.10;99.90
23717;DHT22;22094;52.130;5.598;2023-05-07T16:52:29;15.10;99.90
23717;DHT22;22094;52.130;5.598;2023-05-07T16:54:54;15.00;99.90
23717;DHT22;22094;52.130;5.598;2023-05-07T16:57:23;15.10;99.90
23717;DHT22;22094;52.130;5.598;2023-05-07T16:59:50;15.20;99.90
23717;DHT22;22094;52.130;5.598;2023-05-07T17:07:07;15.30;99.90
23717;DHT22;22094;52.130;5.598;2023-05-07T17:09:33;15.30;99.90
23717;DHT22;22094;52.130;5.598;2023-05-07T17:11:58;16.30;99.90
23717;DHT22;22094;52.130;5.598;2023-05-07T17:14:24;14.50;99.90
23717;DHT22;22094;52.130;5.598;2023-05-07T17:16:49;15.10;99.90
23717;DHT22;22094;52.130;5.598;2023-05-07T17:19:15;15.30;99.90
23717;DHT22;22094;52.130;5.598;2023-05-07T17:21:41;15.20;99.90
23717;DHT22;22094;52.130;5.598;2023-05-07T17:24:06;15.10;99.90
23717;DHT22;22094;52.130;5.598;2023-05-07T17:26:32;15.10;99.90
23717;DHT22;22094;52.130;5.598;2023-05-07T17:29:01;15.10;99.90
23717;DHT22;22094;52.130;5.598;2023-05-07T17:31:26;15.20;99.90
23717;DHT22;22094;52.130;5.598;2023-05-07T17:33:52;15.30;99.90
23717;DHT22;22094;52.130;5.598;2023-05-07T17:36:17;17.30;99.90
23717;DHT22;22094;52.130;5.598;2023-05-07T17:38:43;15.20;99.90
23717;DHT22;22094;52.130;5.598;2023-05-07T17:41:08;13.90;99.90
23717;DHT22;22094;52.130;5.598;2023-05-07T17:43:34;15.20;99.90
23717;DHT22;22094;52.130;5.598;2023-05-07T17:46:00;15.10;99.90
23717;DHT22;22094;52.130;5.598;2023-05-07T17:50:51;15.10;99.90
23717;DHT22;22094;52.130;5.598;2023-05-07T17:55:43;15.00;99.90
23717;DHT22;22094;52.130;5.598;2023-05-07T17:58:10;15.10;99.90
23717;DHT22;22094;52.130;5.598;2023-05-07T18:00:35;15.00;99.90
23717;DHT22;22094;52.130;5.598;2023-05-07T18:03:02;15.10;99.90
23717;DHT22;22094;52.130;5.598;2023-05-07T18:05:28;15.20;99.90
23717;DHT22;22094;52.130;5.598;2023-05-07T18:07:54;13.60;99.90
23717;DHT22;22094;52.130;5.598;2023-05-07T18:10:23;15.10;99.90
23717;DHT22;22094;52.130;5.598;2023-05-07T18:12:49;15.20;99.90
23717;DHT22;22094;52.130;5.598;2023-05-07T18:15:14;14.90;99.90
23717;DHT22;22094;52.130;5.598;2023-05-07T18:17:40;15.00;99.90
23717;DHT22;22094;52.130;5.598;2023-05-07T18:20:06;14.80;99.90
23717;DHT22;22094;52.130;5.598;2023-05-07T18:22:35;14.90;99.90
23717;DHT22;22094;52.130;5.598;2023-05-07T18:25:00;14.90;99.90
23717;DHT22;22094;52.130;5.598;2023-05-07T18:27:26;13.10;99.90
23717;DHT22;22094;52.130;5.598;2023-05-07T18:29:52;14.90;99.90
23717;DHT22;22094;52.130;5.598;2023-05-07T18:32:17;17.20;99.90
23717;DHT22;22094;52.130;5.598;2023-05-07T18:34:43;15.00;99.90
23717;DHT22;22094;52.130;5.598;2023-05-07T18:37:08;15.00;99.90
23717;DHT22;22094;52.130;5.598;2023-05-07T18:39:34;15.00;99.90
23717;DHT22;22094;52.130;5.598;2023-05-07T18:42:00;15.00;99.90
23717;DHT22;22094;52.130;5.598;2023-05-07T18:44:26;15.00;99.90
23717;DHT22;22094;52.130;5.598;2023-05-07T18:46:51;15.00;99.90
23717;DHT22;22094;52.130;5.598;2023-05-07T18:49:17;15.00;99.90
23717;DHT22;22094;52.130;5.598;2023-05-07T18:51:43;15.50;99.90
23717;DHT22;22094;52.130;5.598;2023-05-07T18:54:09;15.20;99.90
23717;DHT22;22094;52.130;5.598;2023-05-07T18:56:34;15.00;99.90
23717;DHT22;22094;52.130;5.598;2023-05-07T18:59:00;15.10;99.90
23717;DHT22;22094;52.130;5.598;2023-05-07T19:01:25;15.00;99.90
23717;DHT22;22094;52.130;5.598;2023-05-07T19:03:51;14.90;99.90
23717;DHT22;22094;52.130;5.598;2023-05-07T19:06:16;14.90;99.90
23717;DHT22;22094;52.130;5.598;2023-05-07T19:08:42;14.90;99.90
23717;DHT22;22094;52.130;5.598;2023-05-07T19:11:08;14.90;99.90
23717;DHT22;22094;52.130;5.598;2023-05-07T19:13:33;14.80;99.90
23717;DHT22;22094;52.130;5.598;2023-05-07T19:15:59;14.80;99.90
23717;DHT22;22094;52.130;5.598;2023-05-07T19:18:24;14.80;99.90
23717;DHT22;22094;52.130;5.598;2023-05-07T19:20:50;14.70;99.90
23717;DHT22;22094;52.130;5.598;2023-05-07T19:23:16;14.70;99.90
23717;DHT22;22094;52.130;5.598;2023-05-07T19:25:42;14.70;99.90